sensor_id;sensor_type;location;lat;lon;timestamp;P1;durP1;ratioP1;P2;durP2;ratioP2
20995;SDS011;10656;52.200;21.052;2024-02-23T00:23:44;14.03;;;10.97;;
20995;SDS011;10656;52.200;21.052;2024-02-23T00:54:14;10.53;;;9.43;;
20995;SDS011;10656;52.200;21.052;2024-02-23T01:29:49;11.67;;;9.90;;
20995;SDS011;10656;52.200;21.052;2024-02-23T01:55:01;10.67;;;9.63;;
20995;SDS011;10656;52.200;21.052;2024-02-23T02:20:14;9.40;;;8.50;;
20995;SDS011;10656;52.200;21.052;2024-02-23T02:35:46;8.93;;;8.00;;
20995;SDS011;10656;52.200;21.052;2024-02-23T03:01:02;7.13;;;6.43;;
20995;SDS011;10656;52.200;21.052;2024-02-23T03:26:03;6.97;;;6.27;;
20995;SDS011;10656;52.200;21.052;2024-02-23T03:28:54;10.10;;;6.97;;
20995;SDS011;10656;52.200;21.052;2024-02-23T03:41:40;6.50;;;5.90;;
20995;SDS011;10656;52.200;21.052;2024-02-23T04:11:25;7.90;;;6.57;;
20995;SDS011;10656;52.200;21.052;2024-02-23T04:37:08;7.70;;;7.00;;
20995;SDS011;10656;52.200;21.052;2024-02-23T05:02:19;8.97;;;7.63;;
20995;SDS011;10656;52.200;21.052;2024-02-23T06:12:38;6.40;;;5.77;;
20995;SDS011;10656;52.200;21.052;2024-02-23T06:32:57;6.87;;;6.07;;
20995;SDS011;10656;52.200;21.052;2024-02-23T06:58:00;7.27;;;6.53;;
20995;SDS011;10656;52.200;21.052;2024-02-23T07:23:17;8.23;;;6.47;;
20995;SDS011;10656;52.200;21.052;2024-02-23T07:43:47;8.47;;;7.30;;
20995;SDS011;10656;52.200;21.052;2024-02-23T08:08:56;11.50;;;8.17;;
20995;SDS011;10656;52.200;21.052;2024-02-23T08:20:25;8.70;;;6.87;;
20995;SDS011;10656;52.200;21.052;2024-02-23T09:05:09;8.93;;;7.83;;
20995;SDS011;10656;52.200;21.052;2024-02-23T09:09:28;10.07;;;8.03;;
20995;SDS011;10656;52.200;21.052;2024-02-23T09:16:45;9.10;;;7.93;;
20995;SDS011;10656;52.200;21.052;2024-02-23T10:00:55;8.67;;;7.20;;
20995;SDS011;10656;52.200;21.052;2024-02-23T11:06:42;8.13;;;7.33;;
20995;SDS011;10656;52.200;21.052;2024-02-23T11:42:19;12.57;;;10.37;;
20995;SDS011;10656;52.200;21.052;2024-02-23T12:07:42;12.77;;;11.27;;
20995;SDS011;10656;52.200;21.052;2024-02-23T12:38:01;14.83;;;10.50;;
20995;SDS011;10656;52.200;21.052;2024-02-23T12:58:25;11.17;;;9.97;;
20995;SDS011;10656;52.200;21.052;2024-02-23T13:28:37;12.27;;;10.97;;
20995;SDS011;10656;52.200;21.052;2024-02-23T13:48:45;13.20;;;11.00;;
20995;SDS011;10656;52.200;21.052;2024-02-23T14:14:09;14.00;;;10.90;;
20995;SDS011;10656;52.200;21.052;2024-02-23T14:50:02;14.93;;;13.30;;
20995;SDS011;10656;52.200;21.052;2024-02-23T15:20:36;20.47;;;16.37;;
20995;SDS011;10656;52.200;21.052;2024-02-23T15:45:46;20.33;;;16.37;;
20995;SDS011;10656;52.200;21.052;2024-02-23T15:52:46;22.23;;;17.87;;
20995;SDS011;10656;52.200;21.052;2024-02-23T15:57:04;25.17;;;18.17;;
20995;SDS011;10656;52.200;21.052;2024-02-23T16:01:06;22.40;;;18.87;;
20995;SDS011;10656;52.200;21.052;2024-02-23T16:26:13;27.23;;;19.10;;
20995;SDS011;10656;52.200;21.052;2024-02-23T16:46:12;28.17;;;20.13;;
20995;SDS011;10656;52.200;21.052;2024-02-23T17:11:52;30.27;;;21.43;;
20995;SDS011;10656;52.200;21.052;2024-02-23T17:32:30;33.53;;;22.27;;
20995;SDS011;10656;52.200;21.052;2024-02-23T17:57:50;42.93;;;26.77;;
20995;SDS011;10656;52.200;21.052;2024-02-23T18:38:20;45.07;;;29.63;;
20995;SDS011;10656;52.200;21.052;2024-02-23T19:03:32;68.80;;;39.40;;
20995;SDS011;10656;52.200;21.052;2024-02-23T19:24:01;88.33;;;46.57;;
20995;SDS011;10656;52.200;21.052;2024-02-23T19:49:35;89.90;;;44.70;;
20995;SDS011;10656;52.200;21.052;2024-02-23T20:09:55;108.70;;;48.20;;
20995;SDS011;10656;52.200;21.052;2024-02-23T20:40:13;111.37;;;52.33;;
20995;SDS011;10656;52.200;21.052;2024-02-23T21:05:41;158.47;;;60.93;;
20995;SDS011;10656;52.200;21.052;2024-02-23T21:36:01;125.20;;;52.97;;
20995;SDS011;10656;52.200;21.052;2024-02-23T21:56:31;111.10;;;50.50;;
20995;SDS011;10656;52.200;21.052;2024-02-23T22:21:48;88.67;;;45.27;;
20995;SDS011;10656;52.200;21.052;2024-02-23T22:47:07;101.13;;;43.43;;
20995;SDS011;10656;52.200;21.052;2024-02-23T23:22:10;93.27;;;41.20;;
20995;SDS011;10656;52.200;21.052;2024-02-23T23:52:48;78.67;;;43.60;;
